sensor_id;sensor_type;location;lat;lon;timestamp;P1;durP1;ratioP1;P2;durP2;ratioP2
1154;SDS011;566;48.414;9.118;2023-06-22T00:01:02;17.85;;;9.18;;
1154;SDS011;566;48.414;9.118;2023-06-22T00:03:28;14.25;;;8.70;;
1154;SDS011;566;48.414;9.118;2023-06-22T00:05:53;18.05;;;8.23;;
1154;SDS011;566;48.414;9.118;2023-06-22T00:08:19;15.32;;;9.00;;
1154;SDS011;566;48.414;9.118;2023-06-22T00:10:45;15.77;;;8.80;;
1154;SDS011;566;48.414;9.118;2023-06-22T00:13:12;19.58;;;8.60;;
1154;SDS011;566;48.414;9.118;2023-06-22T00:15:39;17.35;;;9.20;;
1154;SDS011;566;48.414;9.118;2023-06-22T00:18:08;12.68;;;8.00;;
1154;SDS011;566;48.414;9.118;2023-06-22T00:20:35;12.23;;;7.93;;
1154;SDS011;566;48.414;9.118;2023-06-22T00:23:05;13.68;;;8.15;;
1154;SDS011;566;48.414;9.118;2023-06-22T00:25:37;16.48;;;8.45;;
1154;SDS011;566;48.414;9.118;2023-06-22T00:28:06;13.07;;;8.25;;
1154;SDS011;566;48.414;9.118;2023-06-22T00:30:32;15.30;;;8.38;;
1154;SDS011;566;48.414;9.118;2023-06-22T00:32:58;14.82;;;8.38;;
1154;SDS011;566;48.414;9.118;2023-06-22T00:35:24;14.60;;;7.93;;
1154;SDS011;566;48.414;9.118;2023-06-22T00:37:54;16.85;;;8.93;;
1154;SDS011;566;48.414;9.118;2023-06-22T00:40:25;15.43;;;8.48;;
1154;SDS011;566;48.414;9.118;2023-06-22T00:42:54;13.55;;;8.52;;
1154;SDS011;566;48.414;9.118;2023-06-22T00:45:20;11.82;;;7.90;;
1154;SDS011;566;48.414;9.118;2023-06-22T00:47:48;16.45;;;8.85;;
1154;SDS011;566;48.414;9.118;2023-06-22T00:50:18;18.27;;;8.77;;
1154;SDS011;566;48.414;9.118;2023-06-22T00:52:55;15.18;;;8.38;;
1154;SDS011;566;48.414;9.118;2023-06-22T00:55:22;17.35;;;9.35;;
1154;SDS011;566;48.414;9.118;2023-06-22T00:57:48;16.27;;;8.90;;
1154;SDS011;566;48.414;9.118;2023-06-22T01:00:17;15.93;;;8.90;;
1154;SDS011;566;48.414;9.118;2023-06-22T01:02:47;15.10;;;8.82;;
1154;SDS011;566;48.414;9.118;2023-06-22T01:05:17;15.60;;;9.20;;
1154;SDS011;566;48.414;9.118;2023-06-22T01:16:17;15.57;;;9.73;;
1154;SDS011;566;48.414;9.118;2023-06-22T01:18:50;16.00;;;9.02;;
1154;SDS011;566;48.414;9.118;2023-06-22T01:21:20;17.63;;;9.10;;
1154;SDS011;566;48.414;9.118;2023-06-22T01:23:53;14.63;;;8.77;;
1154;SDS011;566;48.414;9.118;2023-06-22T01:29:28;15.52;;;8.10;;
1154;SDS011;566;48.414;9.118;2023-06-22T01:31:56;15.18;;;9.23;;
1154;SDS011;566;48.414;9.118;2023-06-22T01:34:22;19.42;;;10.02;;
1154;SDS011;566;48.414;9.118;2023-06-22T01:36:50;13.60;;;9.43;;
1154;SDS011;566;48.414;9.118;2023-06-22T01:39:17;17.13;;;8.75;;
1154;SDS011;566;48.414;9.118;2023-06-22T01:41:43;17.75;;;10.00;;
1154;SDS011;566;48.414;9.118;2023-06-22T01:44:09;16.92;;;8.90;;
1154;SDS011;566;48.414;9.118;2023-06-22T01:46:37;14.02;;;8.35;;
1154;SDS011;566;48.414;9.118;2023-06-22T01:49:05;14.55;;;8.77;;
1154;SDS011;566;48.414;9.118;2023-06-22T01:51:31;15.98;;;8.93;;
1154;SDS011;566;48.414;9.118;2023-06-22T01:53:57;14.13;;;8.55;;
1154;SDS011;566;48.414;9.118;2023-06-22T01:56:22;15.70;;;8.80;;
1154;SDS011;566;48.414;9.118;2023-06-22T02:01:59;19.63;;;9.55;;
1154;SDS011;566;48.414;9.118;2023-06-22T02:04:28;15.52;;;8.82;;
1154;SDS011;566;48.414;9.118;2023-06-22T02:06:59;13.20;;;7.97;;
1154;SDS011;566;48.414;9.118;2023-06-22T02:09:28;21.52;;;9.75;;
1154;SDS011;566;48.414;9.118;2023-06-22T02:11:56;16.45;;;9.23;;
1154;SDS011;566;48.414;9.118;2023-06-22T02:14:23;15.23;;;8.93;;
1154;SDS011;566;48.414;9.118;2023-06-22T02:16:50;16.25;;;8.73;;
1154;SDS011;566;48.414;9.118;2023-06-22T02:19:16;12.77;;;8.40;;
1154;SDS011;566;48.414;9.118;2023-06-22T02:21:47;16.42;;;9.75;;
1154;SDS011;566;48.414;9.118;2023-06-22T02:24:12;18.77;;;8.73;;
1154;SDS011;566;48.414;9.118;2023-06-22T02:26:38;15.55;;;9.50;;
1154;SDS011;566;48.414;9.118;2023-06-22T02:29:07;18.63;;;10.48;;
1154;SDS011;566;48.414;9.118;2023-06-22T02:31:33;16.88;;;10.25;;
1154;SDS011;566;48.414;9.118;2023-06-22T02:33:58;19.60;;;10.77;;
1154;SDS011;566;48.414;9.118;2023-06-22T02:36:25;15.82;;;9.70;;
1154;SDS011;566;48.414;9.118;2023-06-22T02:38:52;17.55;;;11.13;;
1154;SDS011;566;48.414;9.118;2023-06-22T02:41:19;16.48;;;10.75;;
1154;SDS011;566;48.414;9.118;2023-06-22T02:43:45;20.17;;;9.75;;
1154;SDS011;566;48.414;9.118;2023-06-22T02:46:11;22.17;;;10.00;;
1154;SDS011;566;48.414;9.118;2023-06-22T02:48:38;17.73;;;10.30;;
1154;SDS011;566;48.414;9.118;2023-06-22T02:51:04;17.20;;;9.23;;
1154;SDS011;566;48.414;9.118;2023-06-22T02:53:30;19.38;;;10.38;;
1154;SDS011;566;48.414;9.118;2023-06-22T02:55:55;17.25;;;9.82;;
1154;SDS011;566;48.414;9.118;2023-06-22T02:58:21;16.17;;;8.82;;
1154;SDS011;566;48.414;9.118;2023-06-22T03:00:47;19.02;;;8.85;;
1154;SDS011;566;48.414;9.118;2023-06-22T03:03:12;14.02;;;8.27;;
1154;SDS011;566;48.414;9.118;2023-06-22T03:05:38;21.73;;;8.75;;
1154;SDS011;566;48.414;9.118;2023-06-22T03:08:05;15.80;;;8.88;;
1154;SDS011;566;48.414;9.118;2023-06-22T03:10:30;16.08;;;9.45;;
1154;SDS011;566;48.414;9.118;2023-06-22T03:12:56;13.68;;;8.90;;
1154;SDS011;566;48.414;9.118;2023-06-22T03:15:21;15.57;;;9.32;;
1154;SDS011;566;48.414;9.118;2023-06-22T03:17:50;12.25;;;8.63;;
1154;SDS011;566;48.414;9.118;2023-06-22T03:20:15;15.15;;;9.05;;
1154;SDS011;566;48.414;9.118;2023-06-22T03:22:41;16.02;;;9.30;;
1154;SDS011;566;48.414;9.118;2023-06-22T03:25:08;15.15;;;9.65;;
1154;SDS011;566;48.414;9.118;2023-06-22T03:27:38;18.13;;;10.25;;
1154;SDS011;566;48.414;9.118;2023-06-22T03:30:08;18.77;;;10.00;;
1154;SDS011;566;48.414;9.118;2023-06-22T03:32:35;17.95;;;9.75;;
1154;SDS011;566;48.414;9.118;2023-06-22T03:35:01;19.17;;;11.15;;
1154;SDS011;566;48.414;9.118;2023-06-22T03:37:27;17.42;;;10.13;;
1154;SDS011;566;48.414;9.118;2023-06-22T03:39:53;15.60;;;9.45;;
1154;SDS011;566;48.414;9.118;2023-06-22T03:42:18;18.30;;;9.52;;
1154;SDS011;566;48.414;9.118;2023-06-22T03:44:44;15.80;;;10.13;;
1154;SDS011;566;48.414;9.118;2023-06-22T03:47:10;13.82;;;9.25;;
1154;SDS011;566;48.414;9.118;2023-06-22T03:49:35;14.20;;;8.77;;
1154;SDS011;566;48.414;9.118;2023-06-22T03:52:01;19.20;;;9.48;;
1154;SDS011;566;48.414;9.118;2023-06-22T03:54:31;17.45;;;9.68;;
1154;SDS011;566;48.414;9.118;2023-06-22T03:56:57;17.83;;;9.45;;
1154;SDS011;566;48.414;9.118;2023-06-22T03:59:23;16.42;;;9.57;;
1154;SDS011;566;48.414;9.118;2023-06-22T04:01:48;14.20;;;8.85;;
1154;SDS011;566;48.414;9.118;2023-06-22T04:04:15;16.33;;;9.10;;
1154;SDS011;566;48.414;9.118;2023-06-22T04:06:41;15.85;;;8.57;;
1154;SDS011;566;48.414;9.118;2023-06-22T04:09:07;18.00;;;8.82;;
1154;SDS011;566;48.414;9.118;2023-06-22T04:11:32;17.02;;;8.80;;
1154;SDS011;566;48.414;9.118;2023-06-22T04:14:01;12.13;;;7.85;;
1154;SDS011;566;48.414;9.118;2023-06-22T04:16:26;15.20;;;7.55;;
1154;SDS011;566;48.414;9.118;2023-06-22T04:18:57;14.68;;;7.85;;
1154;SDS011;566;48.414;9.118;2023-06-22T04:21:22;13.68;;;7.30;;
1154;SDS011;566;48.414;9.118;2023-06-22T04:23:48;14.50;;;7.20;;
1154;SDS011;566;48.414;9.118;2023-06-22T04:26:16;14.45;;;7.78;;
1154;SDS011;566;48.414;9.118;2023-06-22T04:28:42;11.07;;;7.30;;
1154;SDS011;566;48.414;9.118;2023-06-22T04:31:07;10.88;;;6.80;;
1154;SDS011;566;48.414;9.118;2023-06-22T04:33:33;15.25;;;7.35;;
1154;SDS011;566;48.414;9.118;2023-06-22T04:35:58;16.30;;;7.15;;
1154;SDS011;566;48.414;9.118;2023-06-22T04:38:27;16.08;;;8.45;;
1154;SDS011;566;48.414;9.118;2023-06-22T04:40:52;13.82;;;7.28;;
1154;SDS011;566;48.414;9.118;2023-06-22T04:43:18;14.38;;;7.60;;
1154;SDS011;566;48.414;9.118;2023-06-22T04:45:44;16.77;;;7.97;;
1154;SDS011;566;48.414;9.118;2023-06-22T04:48:10;13.32;;;7.35;;
1154;SDS011;566;48.414;9.118;2023-06-22T04:50:41;16.65;;;8.98;;
1154;SDS011;566;48.414;9.118;2023-06-22T04:53:06;17.98;;;8.27;;
1154;SDS011;566;48.414;9.118;2023-06-22T04:55:34;15.68;;;8.75;;
1154;SDS011;566;48.414;9.118;2023-06-22T04:58:02;15.65;;;8.73;;
1154;SDS011;566;48.414;9.118;2023-06-22T05:00:30;19.23;;;8.25;;
1154;SDS011;566;48.414;9.118;2023-06-22T05:02:56;15.00;;;8.32;;
1154;SDS011;566;48.414;9.118;2023-06-22T05:05:22;12.40;;;7.63;;
1154;SDS011;566;48.414;9.118;2023-06-22T05:07:49;11.65;;;6.80;;
1154;SDS011;566;48.414;9.118;2023-06-22T05:10:18;11.65;;;7.80;;
1154;SDS011;566;48.414;9.118;2023-06-22T05:12:44;11.02;;;7.13;;
1154;SDS011;566;48.414;9.118;2023-06-22T05:15:09;14.25;;;7.05;;
1154;SDS011;566;48.414;9.118;2023-06-22T05:17:36;11.48;;;7.22;;
1154;SDS011;566;48.414;9.118;2023-06-22T05:20:07;14.35;;;7.68;;
1154;SDS011;566;48.414;9.118;2023-06-22T05:22:37;12.57;;;6.93;;
1154;SDS011;566;48.414;9.118;2023-06-22T05:25:04;14.23;;;7.80;;
1154;SDS011;566;48.414;9.118;2023-06-22T05:27:34;15.13;;;8.02;;
1154;SDS011;566;48.414;9.118;2023-06-22T05:30:04;11.90;;;7.18;;
1154;SDS011;566;48.414;9.118;2023-06-22T05:32:33;13.93;;;6.53;;
1154;SDS011;566;48.414;9.118;2023-06-22T05:34:59;16.08;;;7.13;;
1154;SDS011;566;48.414;9.118;2023-06-22T05:37:24;13.38;;;7.05;;
1154;SDS011;566;48.414;9.118;2023-06-22T05:39:51;15.23;;;7.05;;
1154;SDS011;566;48.414;9.118;2023-06-22T05:42:16;11.50;;;6.32;;
1154;SDS011;566;48.414;9.118;2023-06-22T05:44:42;13.98;;;6.50;;
1154;SDS011;566;48.414;9.118;2023-06-22T05:47:07;14.40;;;7.07;;
1154;SDS011;566;48.414;9.118;2023-06-22T05:49:33;14.35;;;8.05;;
1154;SDS011;566;48.414;9.118;2023-06-22T05:51:59;15.02;;;7.80;;
1154;SDS011;566;48.414;9.118;2023-06-22T05:54:25;14.55;;;7.35;;
1154;SDS011;566;48.414;9.118;2023-06-22T05:56:52;10.57;;;7.00;;
1154;SDS011;566;48.414;9.118;2023-06-22T05:59:17;17.98;;;9.20;;
1154;SDS011;566;48.414;9.118;2023-06-22T06:01:44;13.27;;;8.02;;
1154;SDS011;566;48.414;9.118;2023-06-22T06:04:10;15.75;;;8.63;;
1154;SDS011;566;48.414;9.118;2023-06-22T06:06:35;15.60;;;9.15;;
1154;SDS011;566;48.414;9.118;2023-06-22T06:09:05;15.23;;;8.13;;
1154;SDS011;566;48.414;9.118;2023-06-22T06:11:32;12.18;;;7.78;;
1154;SDS011;566;48.414;9.118;2023-06-22T06:13:58;13.75;;;8.57;;
1154;SDS011;566;48.414;9.118;2023-06-22T06:16:24;17.52;;;9.45;;
1154;SDS011;566;48.414;9.118;2023-06-22T06:18:49;18.30;;;8.18;;
1154;SDS011;566;48.414;9.118;2023-06-22T06:21:15;15.52;;;7.97;;
1154;SDS011;566;48.414;9.118;2023-06-22T06:23:42;16.83;;;8.43;;
1154;SDS011;566;48.414;9.118;2023-06-22T06:26:07;12.55;;;6.40;;
1154;SDS011;566;48.414;9.118;2023-06-22T06:28:34;14.88;;;7.22;;
1154;SDS011;566;48.414;9.118;2023-06-22T06:31:00;15.27;;;6.45;;
1154;SDS011;566;48.414;9.118;2023-06-22T06:33:26;15.68;;;7.20;;
1154;SDS011;566;48.414;9.118;2023-06-22T06:35:51;14.38;;;7.10;;
1154;SDS011;566;48.414;9.118;2023-06-22T06:38:17;14.13;;;6.53;;
1154;SDS011;566;48.414;9.118;2023-06-22T06:40:42;11.57;;;6.93;;
1154;SDS011;566;48.414;9.118;2023-06-22T06:43:10;10.85;;;6.30;;
1154;SDS011;566;48.414;9.118;2023-06-22T06:45:35;15.98;;;6.88;;
1154;SDS011;566;48.414;9.118;2023-06-22T06:48:01;14.43;;;5.80;;
1154;SDS011;566;48.414;9.118;2023-06-22T06:50:27;13.00;;;6.18;;
1154;SDS011;566;48.414;9.118;2023-06-22T06:52:55;13.20;;;6.18;;
1154;SDS011;566;48.414;9.118;2023-06-22T06:55:24;15.75;;;7.18;;
1154;SDS011;566;48.414;9.118;2023-06-22T06:57:50;13.68;;;6.10;;
1154;SDS011;566;48.414;9.118;2023-06-22T07:00:17;12.80;;;7.03;;
1154;SDS011;566;48.414;9.118;2023-06-22T07:02:43;12.77;;;6.65;;
1154;SDS011;566;48.414;9.118;2023-06-22T07:05:10;15.38;;;7.35;;
1154;SDS011;566;48.414;9.118;2023-06-22T07:07:37;16.52;;;6.78;;
1154;SDS011;566;48.414;9.118;2023-06-22T07:10:03;12.80;;;6.93;;
1154;SDS011;566;48.414;9.118;2023-06-22T07:12:30;13.57;;;6.78;;
1154;SDS011;566;48.414;9.118;2023-06-22T07:17:51;11.02;;;7.45;;
1154;SDS011;566;48.414;9.118;2023-06-22T07:20:17;16.42;;;7.30;;
1154;SDS011;566;48.414;9.118;2023-06-22T07:22:44;14.23;;;6.60;;
1154;SDS011;566;48.414;9.118;2023-06-22T07:25:10;15.38;;;7.13;;
1154;SDS011;566;48.414;9.118;2023-06-22T07:27:39;13.18;;;5.80;;
1154;SDS011;566;48.414;9.118;2023-06-22T07:30:08;11.82;;;6.13;;
1154;SDS011;566;48.414;9.118;2023-06-22T07:32:35;16.40;;;6.40;;
1154;SDS011;566;48.414;9.118;2023-06-22T07:35:01;12.88;;;5.82;;
1154;SDS011;566;48.414;9.118;2023-06-22T07:37:27;12.55;;;6.13;;
1154;SDS011;566;48.414;9.118;2023-06-22T07:39:54;16.25;;;6.15;;
1154;SDS011;566;48.414;9.118;2023-06-22T07:42:23;12.32;;;4.90;;
1154;SDS011;566;48.414;9.118;2023-06-22T07:44:50;11.02;;;5.65;;
1154;SDS011;566;48.414;9.118;2023-06-22T07:47:16;13.60;;;5.78;;
1154;SDS011;566;48.414;9.118;2023-06-22T07:49:44;15.85;;;5.63;;
1154;SDS011;566;48.414;9.118;2023-06-22T07:52:10;11.93;;;5.75;;
1154;SDS011;566;48.414;9.118;2023-06-22T07:54:36;14.57;;;5.90;;
1154;SDS011;566;48.414;9.118;2023-06-22T07:57:01;12.55;;;5.28;;
1154;SDS011;566;48.414;9.118;2023-06-22T07:59:27;11.45;;;5.32;;
1154;SDS011;566;48.414;9.118;2023-06-22T08:01:53;13.57;;;6.68;;
1154;SDS011;566;48.414;9.118;2023-06-22T08:04:19;16.13;;;5.65;;
1154;SDS011;566;48.414;9.118;2023-06-22T08:06:45;12.63;;;5.70;;
1154;SDS011;566;48.414;9.118;2023-06-22T08:09:11;11.32;;;5.80;;
1154;SDS011;566;48.414;9.118;2023-06-22T08:11:37;13.57;;;6.50;;
1154;SDS011;566;48.414;9.118;2023-06-22T08:14:02;12.82;;;6.40;;
1154;SDS011;566;48.414;9.118;2023-06-22T08:16:28;14.57;;;6.35;;
1154;SDS011;566;48.414;9.118;2023-06-22T08:18:54;14.30;;;6.25;;
1154;SDS011;566;48.414;9.118;2023-06-22T08:21:20;11.75;;;6.68;;
1154;SDS011;566;48.414;9.118;2023-06-22T08:23:45;13.52;;;6.75;;
1154;SDS011;566;48.414;9.118;2023-06-22T08:26:11;13.77;;;7.43;;
1154;SDS011;566;48.414;9.118;2023-06-22T08:28:36;12.55;;;7.20;;
1154;SDS011;566;48.414;9.118;2023-06-22T08:31:02;16.20;;;8.25;;
1154;SDS011;566;48.414;9.118;2023-06-22T08:33:28;14.35;;;6.97;;
1154;SDS011;566;48.414;9.118;2023-06-22T08:35:55;14.13;;;6.97;;
1154;SDS011;566;48.414;9.118;2023-06-22T08:38:21;14.77;;;7.97;;
1154;SDS011;566;48.414;9.118;2023-06-22T08:40:47;12.98;;;7.32;;
1154;SDS011;566;48.414;9.118;2023-06-22T08:43:13;19.20;;;8.13;;
1154;SDS011;566;48.414;9.118;2023-06-22T08:45:39;18.05;;;7.70;;
1154;SDS011;566;48.414;9.118;2023-06-22T08:48:05;17.77;;;7.78;;
1154;SDS011;566;48.414;9.118;2023-06-22T08:50:30;13.05;;;6.80;;
1154;SDS011;566;48.414;9.118;2023-06-22T08:52:56;12.98;;;6.18;;
1154;SDS011;566;48.414;9.118;2023-06-22T08:55:21;11.45;;;7.22;;
1154;SDS011;566;48.414;9.118;2023-06-22T08:57:47;13.27;;;6.55;;
1154;SDS011;566;48.414;9.118;2023-06-22T09:00:13;17.20;;;6.95;;
1154;SDS011;566;48.414;9.118;2023-06-22T09:02:43;12.60;;;6.50;;
1154;SDS011;566;48.414;9.118;2023-06-22T09:05:09;15.70;;;6.22;;
1154;SDS011;566;48.414;9.118;2023-06-22T09:07:35;14.90;;;6.25;;
1154;SDS011;566;48.414;9.118;2023-06-22T09:10:00;16.33;;;6.10;;
1154;SDS011;566;48.414;9.118;2023-06-22T09:12:26;13.98;;;6.30;;
1154;SDS011;566;48.414;9.118;2023-06-22T09:14:52;13.93;;;5.78;;
1154;SDS011;566;48.414;9.118;2023-06-22T09:17:18;15.38;;;6.03;;
1154;SDS011;566;48.414;9.118;2023-06-22T09:19:44;11.32;;;5.80;;
1154;SDS011;566;48.414;9.118;2023-06-22T09:22:09;14.18;;;6.07;;
1154;SDS011;566;48.414;9.118;2023-06-22T09:24:35;17.27;;;6.40;;
1154;SDS011;566;48.414;9.118;2023-06-22T09:27:01;15.00;;;6.65;;
1154;SDS011;566;48.414;9.118;2023-06-22T09:29:26;12.55;;;6.85;;
1154;SDS011;566;48.414;9.118;2023-06-22T09:31:52;13.02;;;5.90;;
1154;SDS011;566;48.414;9.118;2023-06-22T09:34:20;12.50;;;6.05;;
1154;SDS011;566;48.414;9.118;2023-06-22T09:36:46;17.95;;;6.88;;
1154;SDS011;566;48.414;9.118;2023-06-22T09:39:12;13.40;;;6.05;;
1154;SDS011;566;48.414;9.118;2023-06-22T09:41:37;12.68;;;5.93;;
1154;SDS011;566;48.414;9.118;2023-06-22T09:44:03;10.45;;;5.32;;
1154;SDS011;566;48.414;9.118;2023-06-22T09:46:29;16.88;;;6.43;;
1154;SDS011;566;48.414;9.118;2023-06-22T09:48:57;14.57;;;6.00;;
1154;SDS011;566;48.414;9.118;2023-06-22T09:51:23;13.40;;;5.47;;
1154;SDS011;566;48.414;9.118;2023-06-22T09:53:49;16.35;;;6.25;;
1154;SDS011;566;48.414;9.118;2023-06-22T09:56:15;13.93;;;6.47;;
1154;SDS011;566;48.414;9.118;2023-06-22T09:58:42;12.20;;;5.65;;
1154;SDS011;566;48.414;9.118;2023-06-22T10:01:08;10.77;;;5.43;;
1154;SDS011;566;48.414;9.118;2023-06-22T10:03:33;12.68;;;6.15;;
1154;SDS011;566;48.414;9.118;2023-06-22T10:05:59;12.30;;;5.72;;
1154;SDS011;566;48.414;9.118;2023-06-22T10:08:25;13.00;;;5.38;;
1154;SDS011;566;48.414;9.118;2023-06-22T10:10:50;15.98;;;6.47;;
1154;SDS011;566;48.414;9.118;2023-06-22T10:13:16;15.07;;;5.75;;
1154;SDS011;566;48.414;9.118;2023-06-22T10:15:41;14.73;;;5.78;;
1154;SDS011;566;48.414;9.118;2023-06-22T10:18:07;13.98;;;6.10;;
1154;SDS011;566;48.414;9.118;2023-06-22T10:20:33;11.43;;;5.70;;
1154;SDS011;566;48.414;9.118;2023-06-22T10:23:01;14.18;;;6.07;;
1154;SDS011;566;48.414;9.118;2023-06-22T10:25:26;12.52;;;6.03;;
1154;SDS011;566;48.414;9.118;2023-06-22T10:27:52;12.43;;;5.50;;
1154;SDS011;566;48.414;9.118;2023-06-22T10:30:18;16.35;;;5.88;;
1154;SDS011;566;48.414;9.118;2023-06-22T10:32:43;10.70;;;5.15;;
1154;SDS011;566;48.414;9.118;2023-06-22T10:35:09;12.82;;;6.03;;
1154;SDS011;566;48.414;9.118;2023-06-22T10:37:42;14.23;;;6.23;;
1154;SDS011;566;48.414;9.118;2023-06-22T10:40:12;14.93;;;5.97;;
1154;SDS011;566;48.414;9.118;2023-06-22T10:42:38;13.30;;;5.63;;
1154;SDS011;566;48.414;9.118;2023-06-22T10:45:04;14.88;;;5.78;;
1154;SDS011;566;48.414;9.118;2023-06-22T10:47:30;14.32;;;6.35;;
1154;SDS011;566;48.414;9.118;2023-06-22T10:49:55;13.85;;;6.63;;
1154;SDS011;566;48.414;9.118;2023-06-22T10:52:21;15.35;;;6.68;;
1154;SDS011;566;48.414;9.118;2023-06-22T10:54:46;10.40;;;5.32;;
1154;SDS011;566;48.414;9.118;2023-06-22T10:57:12;13.50;;;6.38;;
1154;SDS011;566;48.414;9.118;2023-06-22T10:59:37;14.63;;;7.40;;
1154;SDS011;566;48.414;9.118;2023-06-22T11:02:03;15.63;;;6.40;;
1154;SDS011;566;48.414;9.118;2023-06-22T11:04:29;12.30;;;6.05;;
1154;SDS011;566;48.414;9.118;2023-06-22T11:06:54;15.18;;;6.80;;
1154;SDS011;566;48.414;9.118;2023-06-22T11:09:21;14.27;;;7.05;;
1154;SDS011;566;48.414;9.118;2023-06-22T11:11:47;16.17;;;6.25;;
1154;SDS011;566;48.414;9.118;2023-06-22T11:14:13;10.68;;;5.72;;
1154;SDS011;566;48.414;9.118;2023-06-22T11:16:38;12.63;;;5.65;;
1154;SDS011;566;48.414;9.118;2023-06-22T11:19:04;16.05;;;6.18;;
1154;SDS011;566;48.414;9.118;2023-06-22T11:21:30;14.07;;;5.80;;
1154;SDS011;566;48.414;9.118;2023-06-22T11:23:56;15.07;;;5.72;;
1154;SDS011;566;48.414;9.118;2023-06-22T11:26:22;17.10;;;6.10;;
1154;SDS011;566;48.414;9.118;2023-06-22T11:28:48;13.15;;;6.03;;
1154;SDS011;566;48.414;9.118;2023-06-22T11:31:13;13.02;;;6.10;;
1154;SDS011;566;48.414;9.118;2023-06-22T11:33:39;11.60;;;6.28;;
1154;SDS011;566;48.414;9.118;2023-06-22T11:36:05;16.42;;;6.63;;
1154;SDS011;566;48.414;9.118;2023-06-22T11:38:30;12.30;;;7.00;;
1154;SDS011;566;48.414;9.118;2023-06-22T11:40:57;13.20;;;6.68;;
1154;SDS011;566;48.414;9.118;2023-06-22T11:43:23;16.20;;;7.13;;
1154;SDS011;566;48.414;9.118;2023-06-22T11:45:49;14.18;;;7.07;;
1154;SDS011;566;48.414;9.118;2023-06-22T11:48:15;15.65;;;6.53;;
1154;SDS011;566;48.414;9.118;2023-06-22T11:50:41;16.13;;;7.10;;
1154;SDS011;566;48.414;9.118;2023-06-22T11:53:06;13.23;;;7.07;;
1154;SDS011;566;48.414;9.118;2023-06-22T11:55:32;11.25;;;6.68;;
1154;SDS011;566;48.414;9.118;2023-06-22T11:57:57;16.67;;;6.72;;
1154;SDS011;566;48.414;9.118;2023-06-22T12:00:25;14.40;;;7.40;;
1154;SDS011;566;48.414;9.118;2023-06-22T12:02:54;15.00;;;6.97;;
1154;SDS011;566;48.414;9.118;2023-06-22T12:05:21;15.05;;;7.10;;
1154;SDS011;566;48.414;9.118;2023-06-22T12:07:47;16.88;;;6.97;;
1154;SDS011;566;48.414;9.118;2023-06-22T12:10:13;20.65;;;6.53;;
1154;SDS011;566;48.414;9.118;2023-06-22T12:12:39;15.07;;;7.30;;
1154;SDS011;566;48.414;9.118;2023-06-22T12:15:05;17.35;;;7.93;;
1154;SDS011;566;48.414;9.118;2023-06-22T12:17:31;17.00;;;8.15;;
1154;SDS011;566;48.414;9.118;2023-06-22T12:19:56;15.65;;;7.68;;
1154;SDS011;566;48.414;9.118;2023-06-22T12:22:22;12.98;;;7.10;;
1154;SDS011;566;48.414;9.118;2023-06-22T12:24:47;16.70;;;7.10;;
1154;SDS011;566;48.414;9.118;2023-06-22T12:27:13;14.18;;;6.55;;
1154;SDS011;566;48.414;9.118;2023-06-22T12:29:41;17.75;;;7.40;;
1154;SDS011;566;48.414;9.118;2023-06-22T12:32:07;14.18;;;6.80;;
1154;SDS011;566;48.414;9.118;2023-06-22T12:34:32;13.30;;;6.93;;
1154;SDS011;566;48.414;9.118;2023-06-22T12:36:58;13.80;;;6.95;;
1154;SDS011;566;48.414;9.118;2023-06-22T12:39:23;14.27;;;7.38;;
1154;SDS011;566;48.414;9.118;2023-06-22T12:41:49;12.13;;;7.30;;
1154;SDS011;566;48.414;9.118;2023-06-22T12:44:15;15.48;;;6.75;;
1154;SDS011;566;48.414;9.118;2023-06-22T12:46:40;14.73;;;6.95;;
1154;SDS011;566;48.414;9.118;2023-06-22T12:49:06;12.32;;;6.18;;
1154;SDS011;566;48.414;9.118;2023-06-22T12:51:31;12.63;;;6.68;;
1154;SDS011;566;48.414;9.118;2023-06-22T12:53:57;13.30;;;6.63;;
1154;SDS011;566;48.414;9.118;2023-06-22T12:56:22;21.70;;;7.40;;
1154;SDS011;566;48.414;9.118;2023-06-22T12:58:48;13.68;;;6.88;;
1154;SDS011;566;48.414;9.118;2023-06-22T13:01:13;12.23;;;6.72;;
1154;SDS011;566;48.414;9.118;2023-06-22T13:03:39;16.10;;;6.72;;
1154;SDS011;566;48.414;9.118;2023-06-22T13:06:05;13.98;;;6.40;;
1154;SDS011;566;48.414;9.118;2023-06-22T13:08:31;15.55;;;6.53;;
1154;SDS011;566;48.414;9.118;2023-06-22T13:10:56;13.95;;;6.22;;
1154;SDS011;566;48.414;9.118;2023-06-22T13:13:23;15.73;;;6.00;;
1154;SDS011;566;48.414;9.118;2023-06-22T13:15:54;18.05;;;6.32;;
1154;SDS011;566;48.414;9.118;2023-06-22T13:18:20;12.43;;;5.80;;
1154;SDS011;566;48.414;9.118;2023-06-22T13:20:45;13.35;;;5.93;;
1154;SDS011;566;48.414;9.118;2023-06-22T13:23:11;13.95;;;5.75;;
1154;SDS011;566;48.414;9.118;2023-06-22T13:25:37;14.02;;;5.90;;
1154;SDS011;566;48.414;9.118;2023-06-22T13:28:03;14.18;;;6.80;;
1154;SDS011;566;48.414;9.118;2023-06-22T13:30:28;14.95;;;6.55;;
1154;SDS011;566;48.414;9.118;2023-06-22T13:32:54;17.52;;;6.38;;
1154;SDS011;566;48.414;9.118;2023-06-22T13:35:20;13.75;;;5.85;;
1154;SDS011;566;48.414;9.118;2023-06-22T13:37:46;15.90;;;5.97;;
1154;SDS011;566;48.414;9.118;2023-06-22T13:40:12;13.90;;;6.25;;
1154;SDS011;566;48.414;9.118;2023-06-22T13:42:38;15.80;;;6.07;;
1154;SDS011;566;48.414;9.118;2023-06-22T13:45:04;13.32;;;5.43;;
1154;SDS011;566;48.414;9.118;2023-06-22T13:47:31;12.63;;;5.72;;
1154;SDS011;566;48.414;9.118;2023-06-22T13:49:57;18.00;;;6.40;;
1154;SDS011;566;48.414;9.118;2023-06-22T13:52:23;15.65;;;6.43;;
1154;SDS011;566;48.414;9.118;2023-06-22T13:54:48;16.05;;;6.78;;
1154;SDS011;566;48.414;9.118;2023-06-22T13:57:14;16.77;;;6.32;;
1154;SDS011;566;48.414;9.118;2023-06-22T13:59:39;16.75;;;6.50;;
1154;SDS011;566;48.414;9.118;2023-06-22T14:02:05;14.77;;;6.72;;
1154;SDS011;566;48.414;9.118;2023-06-22T14:04:31;15.75;;;6.47;;
1154;SDS011;566;48.414;9.118;2023-06-22T14:06:57;17.30;;;6.85;;
1154;SDS011;566;48.414;9.118;2023-06-22T14:09:22;11.93;;;6.07;;
1154;SDS011;566;48.414;9.118;2023-06-22T14:11:48;17.80;;;7.15;;
1154;SDS011;566;48.414;9.118;2023-06-22T14:14:13;16.77;;;6.53;;
1154;SDS011;566;48.414;9.118;2023-06-22T14:16:39;19.05;;;6.80;;
1154;SDS011;566;48.414;9.118;2023-06-22T14:19:04;13.25;;;5.95;;
1154;SDS011;566;48.414;9.118;2023-06-22T14:21:30;12.80;;;6.10;;
1154;SDS011;566;48.414;9.118;2023-06-22T14:23:58;13.80;;;6.15;;
1154;SDS011;566;48.414;9.118;2023-06-22T14:26:25;13.15;;;5.90;;
1154;SDS011;566;48.414;9.118;2023-06-22T14:29:00;18.02;;;6.75;;
1154;SDS011;566;48.414;9.118;2023-06-22T14:31:26;17.85;;;6.45;;
1154;SDS011;566;48.414;9.118;2023-06-22T14:33:51;17.05;;;6.35;;
1154;SDS011;566;48.414;9.118;2023-06-22T14:36:19;13.95;;;6.32;;
1154;SDS011;566;48.414;9.118;2023-06-22T14:38:56;15.60;;;6.82;;
1154;SDS011;566;48.414;9.118;2023-06-22T14:41:21;12.50;;;5.90;;
1154;SDS011;566;48.414;9.118;2023-06-22T14:43:47;15.82;;;6.28;;
1154;SDS011;566;48.414;9.118;2023-06-22T14:46:15;14.82;;;5.85;;
1154;SDS011;566;48.414;9.118;2023-06-22T14:48:45;15.63;;;5.85;;
1154;SDS011;566;48.414;9.118;2023-06-22T14:51:11;13.73;;;6.35;;
1154;SDS011;566;48.414;9.118;2023-06-22T14:53:37;15.70;;;6.22;;
1154;SDS011;566;48.414;9.118;2023-06-22T14:56:03;15.50;;;6.45;;
1154;SDS011;566;48.414;9.118;2023-06-22T14:58:32;12.65;;;6.50;;
1154;SDS011;566;48.414;9.118;2023-06-22T15:00:58;16.05;;;7.10;;
1154;SDS011;566;48.414;9.118;2023-06-22T15:03:25;18.55;;;6.53;;
1154;SDS011;566;48.414;9.118;2023-06-22T15:05:53;15.57;;;6.47;;
1154;SDS011;566;48.414;9.118;2023-06-22T15:08:19;16.48;;;6.45;;
1154;SDS011;566;48.414;9.118;2023-06-22T15:10:45;18.38;;;5.03;;
1154;SDS011;566;48.414;9.118;2023-06-22T15:13:11;15.40;;;6.18;;
1154;SDS011;566;48.414;9.118;2023-06-22T15:15:37;18.90;;;5.88;;
1154;SDS011;566;48.414;9.118;2023-06-22T15:18:03;23.45;;;6.18;;
1154;SDS011;566;48.414;9.118;2023-06-22T15:20:28;17.35;;;5.40;;
1154;SDS011;566;48.414;9.118;2023-06-22T15:22:54;14.50;;;4.90;;
1154;SDS011;566;48.414;9.118;2023-06-22T15:25:19;12.38;;;4.57;;
1154;SDS011;566;48.414;9.118;2023-06-22T15:27:45;18.90;;;4.88;;